createdAt,value
2022-12-14T00:01:45.022Z,14.30
2022-12-14T00:04:15.976Z,14.60
2022-12-14T00:06:44.456Z,14.77
2022-12-14T00:09:11.438Z,14.03
2022-12-14T00:11:38.402Z,14.20
2022-12-14T00:14:05.872Z,14.30
2022-12-14T00:16:34.761Z,14.13
2022-12-14T00:19:05.820Z,13.97
2022-12-14T00:21:32.787Z,13.00
2022-12-14T00:24:00.592Z,13.93
2022-12-14T00:26:31.611Z,13.93
2022-12-14T00:29:00.759Z,13.57
2022-12-14T00:31:37.760Z,13.87
2022-12-14T00:34:04.776Z,13.50
2022-12-14T00:36:32.346Z,12.67
2022-12-14T00:39:00.746Z,13.27
2022-12-14T00:41:27.802Z,14.70
2022-12-14T00:43:54.995Z,13.90
2022-12-14T00:46:22.245Z,13.77
2022-12-14T00:48:49.327Z,12.73
2022-12-14T00:51:16.320Z,13.57
2022-12-14T00:53:44.929Z,13.27
2022-12-14T00:56:12.554Z,13.30
2022-12-14T00:58:39.553Z,13.07
2022-12-14T01:01:12.781Z,13.10
2022-12-14T01:03:40.994Z,13.80
2022-12-14T01:06:18.882Z,12.63
2022-12-14T01:08:46.552Z,12.07
2022-12-14T01:11:14.434Z,14.00
2022-12-14T01:13:42.688Z,11.97
2022-12-14T01:16:12.778Z,11.23
2022-12-14T01:18:41.666Z,13.67
2022-12-14T01:21:20.544Z,11.57
2022-12-14T01:23:48.759Z,11.63
2022-12-14T01:26:17.022Z,12.07
2022-12-14T01:28:45.582Z,10.70
2022-12-14T01:31:15.526Z,12.73
2022-12-14T01:33:42.512Z,11.10
2022-12-14T01:36:12.369Z,12.60
2022-12-14T01:38:39.538Z,11.30
2022-12-14T01:41:08.126Z,13.43
2022-12-14T01:43:50.049Z,12.63
2022-12-14T01:46:34.360Z,12.70
2022-12-14T01:49:22.631Z,11.70
2022-12-14T01:52:04.929Z,12.40
2022-12-14T01:54:34.633Z,13.00
2022-12-14T01:57:01.974Z,11.17
2022-12-14T01:59:34.163Z,11.77
2022-12-14T02:02:04.517Z,12.60
2022-12-14T02:04:33.420Z,12.00
2022-12-14T02:07:01.421Z,13.20
2022-12-14T02:09:33.385Z,12.20
2022-12-14T02:12:08.678Z,12.07
2022-12-14T02:14:36.260Z,11.33
2022-12-14T02:17:04.333Z,12.80
2022-12-14T02:19:32.255Z,12.47
2022-12-14T02:22:41.034Z,11.63
2022-12-14T02:25:52.636Z,12.67
2022-12-14T02:28:38.201Z,12.67
2022-12-14T02:31:49.437Z,11.83
2022-12-14T02:34:46.728Z,10.80
2022-12-14T02:37:49.136Z,12.27
2022-12-14T02:40:36.333Z,11.63
2022-12-14T02:49:53.478Z,11.97
2022-12-14T03:11:07.316Z,11.73
2022-12-14T03:13:57.352Z,11.30
2022-12-14T03:16:29.170Z,11.13
2022-12-14T03:19:23.805Z,11.17
2022-12-14T03:21:56.250Z,11.13
2022-12-14T03:24:43.489Z,10.20
2022-12-14T03:27:27.474Z,11.83
2022-12-14T03:30:03.608Z,10.67
2022-12-14T03:32:40.600Z,11.73
2022-12-14T03:35:11.855Z,11.30
2022-12-14T03:37:52.897Z,10.83
2022-12-14T03:40:24.547Z,10.47
2022-12-14T03:43:17.286Z,10.30
2022-12-14T03:46:28.999Z,10.43
2022-12-14T03:49:07.000Z,11.73
2022-12-14T03:52:01.424Z,10.63
2022-12-14T03:54:57.910Z,11.23
2022-12-14T03:58:04.909Z,11.23
2022-12-14T04:00:38.333Z,11.67
2022-12-14T04:03:40.168Z,12.40
2022-12-14T04:06:19.010Z,11.27
2022-12-14T04:08:50.542Z,11.53
2022-12-14T04:11:41.108Z,11.60
2022-12-14T04:14:38.839Z,10.80
2022-12-14T04:17:31.664Z,11.43
2022-12-14T04:20:30.265Z,12.27
2022-12-14T04:23:10.224Z,12.27
2022-12-14T04:26:02.919Z,10.50
2022-12-14T04:28:53.718Z,11.60
2022-12-14T04:31:24.972Z,11.77
2022-12-14T04:33:58.503Z,11.50
2022-12-14T04:36:31.737Z,12.50
2022-12-14T04:39:11.354Z,11.73
2022-12-14T04:41:43.800Z,12.13
2022-12-14T04:44:22.013Z,11.90
2022-12-14T04:46:50.733Z,11.67
2022-12-14T04:49:24.620Z,12.27
2022-12-14T04:52:20.872Z,10.90
2022-12-14T04:55:05.861Z,11.63
2022-12-14T04:57:53.045Z,10.50
2022-12-14T05:00:20.188Z,10.90
2022-12-14T05:03:18.315Z,11.00
2022-12-14T05:06:23.910Z,12.07
2022-12-14T05:09:17.157Z,10.63
2022-12-14T05:12:12.353Z,10.20
2022-12-14T05:14:51.158Z,11.93
2022-12-14T05:17:18.972Z,10.27
2022-12-14T05:19:49.133Z,10.90
2022-12-14T05:22:18.298Z,10.00
2022-12-14T05:24:45.378Z,10.90
2022-12-14T05:27:12.712Z,10.23
2022-12-14T05:29:43.020Z,10.07
2022-12-14T05:32:13.034Z,10.53
2022-12-14T05:34:41.635Z,10.43
2022-12-14T05:37:13.104Z,10.20
2022-12-14T05:39:44.891Z,9.90
2022-12-14T05:42:12.051Z,10.73
2022-12-14T05:44:39.353Z,10.43
2022-12-14T05:47:06.504Z,10.83
2022-12-14T05:49:33.595Z,11.20
2022-12-14T05:52:00.757Z,10.97
2022-12-14T05:54:27.899Z,10.10
2022-12-14T05:56:54.973Z,10.90
2022-12-14T05:59:22.012Z,11.00
2022-12-14T06:01:50.570Z,10.93
2022-12-14T06:04:19.340Z,10.37
2022-12-14T06:06:46.933Z,10.43
2022-12-14T06:09:15.987Z,10.70
2022-12-14T06:11:44.093Z,10.13
2022-12-14T06:14:12.198Z,10.97
2022-12-14T06:16:44.045Z,10.97
2022-12-14T06:19:11.920Z,10.10
2022-12-14T06:21:40.930Z,10.37
2022-12-14T06:24:10.071Z,10.77
2022-12-14T06:26:37.691Z,10.37
2022-12-14T06:29:04.892Z,9.70
2022-12-14T06:31:35.508Z,11.43
2022-12-14T06:34:03.558Z,10.90
2022-12-14T06:36:33.867Z,11.87
2022-12-14T06:39:07.053Z,12.20
2022-12-14T06:41:34.470Z,11.67
2022-12-14T06:44:05.875Z,13.00
2022-12-14T06:46:33.706Z,13.60
2022-12-14T06:49:04.534Z,14.60
2022-12-14T06:51:38.077Z,19.07
2022-12-14T06:54:05.169Z,18.23
2022-12-14T06:56:32.227Z,12.50
2022-12-14T06:58:59.541Z,12.53
2022-12-14T07:01:27.585Z,13.03
2022-12-14T07:03:56.397Z,11.57
2022-12-14T07:06:24.107Z,11.37
2022-12-14T07:08:54.946Z,11.10
2022-12-14T07:11:23.295Z,10.83
2022-12-14T07:13:50.327Z,10.13
2022-12-14T07:16:20.280Z,10.00
2022-12-14T07:18:47.633Z,12.10
2022-12-14T07:21:17.020Z,10.83
2022-12-14T07:23:45.746Z,11.33
2022-12-14T07:26:24.764Z,10.93
2022-12-14T07:28:51.942Z,9.93
2022-12-14T07:31:28.707Z,10.20
2022-12-14T07:34:00.155Z,9.60
2022-12-14T07:36:29.222Z,10.07
2022-12-14T07:38:56.883Z,11.30
2022-12-14T07:41:26.944Z,10.10
2022-12-14T07:47:16.694Z,9.70
2022-12-14T07:49:44.620Z,9.90
2022-12-14T07:52:11.613Z,9.30
2022-12-14T07:54:38.702Z,9.57
2022-12-14T07:57:05.918Z,8.33
2022-12-14T07:59:33.075Z,10.73
2022-12-14T08:02:03.093Z,10.00
2022-12-14T08:04:30.478Z,10.53
2022-12-14T08:06:58.861Z,10.40
2022-12-14T08:09:25.722Z,9.63
2022-12-14T08:11:52.730Z,8.97
2022-12-14T08:14:19.934Z,8.50
2022-12-14T08:16:48.138Z,9.63
2022-12-14T08:19:15.821Z,9.07
2022-12-14T08:21:43.155Z,9.50
2022-12-14T08:24:14.157Z,8.83
2022-12-14T08:26:41.318Z,8.57
2022-12-14T08:29:08.634Z,8.70
2022-12-14T08:31:36.104Z,9.47
2022-12-14T08:34:11.033Z,9.00
2022-12-14T08:36:38.944Z,9.77
2022-12-14T08:39:08.974Z,10.00
2022-12-14T08:41:36.732Z,9.10
2022-12-14T08:44:05.155Z,9.80
2022-12-14T08:46:34.566Z,8.47
2022-12-14T08:49:02.159Z,15.60
2022-12-14T08:51:29.635Z,11.53
2022-12-14T08:53:57.695Z,11.30
2022-12-14T08:56:27.902Z,9.90
2022-12-14T08:58:55.772Z,9.47
2022-12-14T09:01:32.254Z,10.70
2022-12-14T09:04:08.595Z,10.80
2022-12-14T09:06:38.387Z,12.73
2022-12-14T09:09:11.881Z,12.07
2022-12-14T09:11:43.348Z,11.67
2022-12-14T09:14:10.901Z,11.87
2022-12-14T09:16:37.968Z,10.03
2022-12-14T09:19:04.947Z,11.30
2022-12-14T09:21:33.053Z,13.20
2022-12-14T09:24:00.225Z,12.00
2022-12-14T09:26:29.999Z,11.43
2022-12-14T09:29:01.212Z,12.43
2022-12-14T09:31:29.307Z,10.00
2022-12-14T09:33:57.143Z,9.47
2022-12-14T09:36:26.281Z,9.40
2022-12-14T09:38:55.521Z,9.57
2022-12-14T09:42:00.653Z,9.40
2022-12-14T09:44:56.335Z,8.87
2022-12-14T09:47:41.691Z,10.27
2022-12-14T09:50:27.489Z,10.47
2022-12-14T09:52:57.572Z,11.07
2022-12-14T09:55:55.525Z,9.77
2022-12-14T09:58:31.469Z,11.00
2022-12-14T10:01:43.776Z,10.10
2022-12-14T10:04:56.084Z,9.10
2022-12-14T10:07:48.436Z,10.43
2022-12-14T10:10:26.785Z,9.87
2022-12-14T10:13:31.404Z,8.70
2022-12-14T10:16:51.652Z,9.43
2022-12-14T10:19:51.756Z,10.47
2022-12-14T10:22:23.022Z,9.73
2022-12-14T10:25:08.528Z,11.37
2022-12-14T10:28:01.165Z,10.70
2022-12-14T10:30:26.179Z,11.07
2022-12-14T10:33:10.312Z,11.50
2022-12-14T10:36:12.049Z,11.60
2022-12-14T10:38:56.907Z,11.87
2022-12-14T10:41:43.873Z,10.63
2022-12-14T10:45:39.260Z,10.43
2022-12-14T10:48:12.918Z,11.50
2022-12-14T10:50:58.487Z,11.53
2022-12-14T10:53:40.573Z,11.43
2022-12-14T10:56:16.416Z,10.90
2022-12-14T10:58:43.584Z,11.67
2022-12-14T11:01:15.558Z,13.67
2022-12-14T11:03:44.203Z,14.33
2022-12-14T11:06:17.921Z,16.20
2022-12-14T11:08:48.545Z,16.40
2022-12-14T11:11:19.654Z,16.47
2022-12-14T11:13:56.434Z,15.50
2022-12-14T11:16:41.168Z,11.70
2022-12-14T11:19:23.260Z,12.40
2022-12-14T11:22:04.097Z,12.07
2022-12-14T11:24:31.528Z,11.70
2022-12-14T11:27:03.985Z,11.50
2022-12-14T11:29:35.330Z,12.10
2022-12-14T11:32:03.650Z,9.93
2022-12-14T11:34:42.753Z,10.70
2022-12-14T11:37:31.942Z,10.40
2022-12-14T11:40:05.191Z,11.23
2022-12-14T11:42:32.855Z,10.30
2022-12-14T11:45:30.582Z,11.30
2022-12-14T11:48:22.273Z,11.60
2022-12-14T11:50:50.612Z,10.60
2022-12-14T11:53:20.573Z,11.60
2022-12-14T11:55:59.599Z,11.37
2022-12-14T11:58:33.937Z,13.60
2022-12-14T12:01:13.692Z,11.40
2022-12-14T12:03:51.145Z,12.17
2022-12-14T12:06:29.594Z,14.30
2022-12-14T12:09:00.586Z,14.73
2022-12-14T12:11:33.577Z,16.17
2022-12-14T12:14:04.482Z,14.00
2022-12-14T12:16:37.364Z,12.30
2022-12-14T12:19:12.508Z,12.10
2022-12-14T12:21:44.976Z,13.70
2022-12-14T12:25:24.928Z,11.60
2022-12-14T12:28:02.079Z,11.53
2022-12-14T12:30:34.287Z,12.03
2022-12-14T12:33:11.999Z,12.53
2022-12-14T12:35:53.761Z,11.50
2022-12-14T12:38:49.575Z,12.37
2022-12-14T12:42:05.608Z,13.07
2022-12-14T12:45:16.627Z,13.50
2022-12-14T12:47:50.621Z,13.50
2022-12-14T12:50:23.111Z,13.70
2022-12-14T12:53:06.345Z,14.40
2022-12-14T12:55:42.069Z,16.07
2022-12-14T12:58:25.186Z,16.93
2022-12-14T13:00:55.783Z,17.40
2022-12-14T13:03:32.461Z,16.20
2022-12-14T13:06:15.091Z,18.20
2022-12-14T13:08:44.180Z,16.20
2022-12-14T13:11:33.742Z,15.23
2022-12-14T13:14:23.545Z,15.87
2022-12-14T13:16:52.546Z,15.00
2022-12-14T13:19:52.510Z,14.97
2022-12-14T13:22:31.669Z,16.93
2022-12-14T13:25:06.659Z,18.00
2022-12-14T13:28:12.286Z,16.70
2022-12-14T13:31:29.640Z,17.20
2022-12-14T13:34:11.434Z,17.33
2022-12-14T13:36:52.045Z,16.40
2022-12-14T13:40:08.573Z,16.03
2022-12-14T13:43:05.292Z,14.87
2022-12-14T13:45:41.383Z,16.23
2022-12-14T13:48:24.950Z,17.20
2022-12-14T13:51:05.101Z,16.87
2022-12-14T13:53:43.961Z,14.50
2022-12-14T13:56:27.820Z,16.10
2022-12-14T13:59:01.890Z,16.00
2022-12-14T14:01:53.639Z,15.07
2022-12-14T14:04:25.243Z,15.17
2022-12-14T14:06:57.177Z,14.93
2022-12-14T14:09:48.598Z,15.20
2022-12-14T14:12:36.638Z,14.17
2022-12-14T14:15:34.908Z,15.70
2022-12-14T14:18:16.514Z,13.83
2022-12-14T14:20:58.585Z,14.03
2022-12-14T14:23:30.436Z,13.50
2022-12-14T14:26:20.589Z,14.07
2022-12-14T14:29:07.470Z,13.73
2022-12-14T14:31:52.259Z,13.30
2022-12-14T14:34:36.691Z,13.90
2022-12-14T14:37:29.133Z,14.07
2022-12-14T14:40:29.480Z,14.10
2022-12-14T14:43:16.626Z,14.03
2022-12-14T14:45:51.511Z,14.00
2022-12-14T14:48:51.107Z,15.30
2022-12-14T14:51:25.701Z,13.43
2022-12-14T14:55:15.885Z,13.20
2022-12-14T14:57:57.417Z,13.07
2022-12-14T15:00:26.357Z,14.63
2022-12-14T15:02:55.721Z,14.33
2022-12-14T15:05:44.729Z,14.57
2022-12-14T15:08:21.610Z,15.27
2022-12-14T15:10:50.450Z,14.17
2022-12-14T15:13:25.106Z,14.67
2022-12-14T15:15:53.821Z,22.23
2022-12-14T15:18:23.827Z,32.67
2022-12-14T15:21:04.299Z,25.07
2022-12-14T15:23:37.120Z,24.80
2022-12-14T15:26:16.248Z,24.80
2022-12-14T15:28:50.627Z,24.47
2022-12-14T15:31:28.196Z,24.33
2022-12-14T15:33:55.471Z,21.03
2022-12-14T15:36:26.926Z,20.77
2022-12-14T15:38:57.190Z,19.93
2022-12-14T15:41:29.284Z,20.90
2022-12-14T15:44:00.132Z,23.43
2022-12-14T15:46:30.565Z,24.87
2022-12-14T15:49:08.443Z,24.17
2022-12-14T15:51:41.241Z,23.77
2022-12-14T15:54:18.818Z,24.90
2022-12-14T15:56:48.921Z,23.10
2022-12-14T15:59:17.657Z,22.80
2022-12-14T16:01:55.063Z,22.00
2022-12-14T16:04:25.955Z,21.53
2022-12-14T16:07:08.471Z,20.23
2022-12-14T16:09:51.561Z,20.67
2022-12-14T16:12:45.084Z,24.00
2022-12-14T16:15:18.765Z,21.20
2022-12-14T16:17:46.580Z,24.30
2022-12-14T16:20:26.100Z,27.37
2022-12-14T16:23:24.591Z,26.43
2022-12-14T16:25:53.461Z,25.10
2022-12-14T16:28:41.096Z,24.17
2022-12-14T16:31:22.977Z,25.43
2022-12-14T16:34:12.606Z,25.17
2022-12-14T16:36:39.731Z,22.47
2022-12-14T16:39:29.653Z,23.90
2022-12-14T16:42:00.794Z,24.83
2022-12-14T16:44:46.553Z,24.53
2022-12-14T16:47:34.832Z,24.90
2022-12-14T16:50:02.206Z,27.40
2022-12-14T16:52:31.949Z,25.67
2022-12-14T16:55:09.799Z,27.90
2022-12-14T16:57:41.504Z,26.47
2022-12-14T17:00:19.574Z,26.67
2022-12-14T17:02:54.201Z,27.57
2022-12-14T17:05:25.155Z,26.77
2022-12-14T17:07:53.659Z,27.30
2022-12-14T17:10:23.642Z,28.83
2022-12-14T17:12:52.318Z,29.37
2022-12-14T17:15:21.941Z,29.43
2022-12-14T17:17:52.099Z,29.47
2022-12-14T17:20:29.975Z,29.37
2022-12-14T17:22:59.185Z,31.13
2022-12-14T17:25:28.019Z,33.00
2022-12-14T17:27:55.391Z,31.90
2022-12-14T17:30:26.848Z,31.63
2022-12-14T17:32:55.137Z,30.70
2022-12-14T17:35:29.776Z,30.00
2022-12-14T17:37:57.103Z,32.00
2022-12-14T17:40:24.594Z,32.87
2022-12-14T17:42:54.496Z,42.20
2022-12-14T17:45:24.252Z,47.13
2022-12-14T17:47:51.219Z,38.17
2022-12-14T17:50:19.164Z,39.90
2022-12-14T17:52:47.128Z,39.23
2022-12-14T17:55:26.639Z,37.07
2022-12-14T17:57:55.416Z,38.40
2022-12-14T18:00:46.092Z,40.70
2022-12-14T18:03:15.455Z,37.70
2022-12-14T18:05:48.572Z,35.97
2022-12-14T18:08:26.896Z,36.07
2022-12-14T18:11:02.744Z,34.30
2022-12-14T18:13:31.866Z,34.67
2022-12-14T18:16:00.618Z,33.43
2022-12-14T18:18:29.780Z,32.50
2022-12-14T18:21:02.041Z,31.53
2022-12-14T18:23:33.149Z,34.23
2022-12-14T18:26:02.811Z,46.60
2022-12-14T18:28:31.759Z,42.67
2022-12-14T18:31:03.576Z,37.03
2022-12-14T18:33:32.122Z,45.00
2022-12-14T18:35:59.337Z,47.77
2022-12-14T18:38:26.579Z,41.40
2022-12-14T18:40:56.251Z,39.03
2022-12-14T18:43:26.550Z,40.10
2022-12-14T18:45:55.025Z,32.83
2022-12-14T18:48:23.327Z,29.73
2022-12-14T18:50:52.299Z,34.57
2022-12-14T18:53:21.499Z,31.40
2022-12-14T18:55:49.033Z,31.10
2022-12-14T18:58:21.884Z,31.80
2022-12-14T19:00:51.535Z,31.20
2022-12-14T19:03:18.797Z,32.03
2022-12-14T19:05:46.613Z,33.10
2022-12-14T19:08:13.902Z,33.57
2022-12-14T19:10:44.394Z,34.30
2022-12-14T19:13:25.714Z,31.50
2022-12-14T19:15:53.324Z,30.90
2022-12-14T19:18:20.606Z,31.63
2022-12-14T19:20:50.015Z,31.20
2022-12-14T19:23:19.317Z,33.97
2022-12-14T19:25:47.131Z,32.93
2022-12-14T19:31:02.074Z,29.27
2022-12-14T19:33:29.871Z,31.70
2022-12-14T19:35:57.234Z,31.30
2022-12-14T19:38:24.270Z,32.10
2022-12-14T19:41:10.423Z,31.60
2022-12-14T19:43:37.668Z,30.50
2022-12-14T19:46:10.650Z,32.67
2022-12-14T19:48:38.273Z,31.60
2022-12-14T19:51:10.934Z,33.50
2022-12-14T19:53:39.734Z,32.90
2022-12-14T19:56:07.661Z,31.83
2022-12-14T19:58:35.884Z,48.30
2022-12-14T20:01:11.284Z,37.50
2022-12-14T20:03:39.065Z,35.40
2022-12-14T20:06:06.827Z,30.40
2022-12-14T20:08:35.455Z,38.47
2022-12-14T20:11:10.957Z,33.17
2022-12-14T20:13:38.425Z,31.57
2022-12-14T20:16:06.157Z,34.90
2022-12-14T20:18:33.749Z,33.77
2022-12-14T20:21:02.979Z,33.10
2022-12-14T20:23:32.101Z,31.60
2022-12-14T20:26:11.885Z,33.47
2022-12-14T20:28:39.047Z,34.63
2022-12-14T20:31:08.235Z,33.60
2022-12-14T20:33:37.616Z,31.70
2022-12-14T20:36:05.542Z,34.80
2022-12-14T20:38:32.832Z,35.20
2022-12-14T20:41:26.687Z,33.10
2022-12-14T20:43:54.210Z,33.90
2022-12-14T20:46:31.080Z,32.40
2022-12-14T20:49:03.740Z,31.53
2022-12-14T20:51:33.553Z,33.90
2022-12-14T20:54:05.545Z,33.80
2022-12-14T20:56:34.387Z,36.33
2022-12-14T20:59:02.322Z,35.07
2022-12-14T21:01:30.167Z,34.70
2022-12-14T21:04:00.869Z,33.17
2022-12-14T21:06:28.516Z,34.53
2022-12-14T21:09:01.940Z,34.63
2022-12-14T21:11:48.640Z,36.43
2022-12-14T21:14:16.585Z,33.93
2022-12-14T21:16:44.058Z,34.60
2022-12-14T21:19:13.381Z,35.67
2022-12-14T21:21:44.576Z,35.23
2022-12-14T21:26:56.304Z,31.60
2022-12-14T21:29:23.368Z,34.90
2022-12-14T21:31:53.244Z,34.07
2022-12-14T21:34:21.951Z,33.20
2022-12-14T21:36:49.309Z,32.00
2022-12-14T21:39:17.750Z,32.30
2022-12-14T21:42:05.771Z,31.10
2022-12-14T21:44:36.596Z,33.00
2022-12-14T21:47:06.494Z,33.00
2022-12-14T21:49:36.070Z,33.30
2022-12-14T21:52:07.187Z,33.10
2022-12-14T21:54:35.184Z,33.10
2022-12-14T21:57:20.664Z,31.80
2022-12-14T21:59:47.694Z,31.20
2022-12-14T22:02:23.193Z,36.10
2022-12-14T22:04:50.993Z,29.30
2022-12-14T22:07:20.828Z,33.73
2022-12-14T22:09:49.599Z,52.73
2022-12-14T22:12:18.196Z,85.73
2022-12-14T22:14:45.095Z,61.33
2022-12-14T22:17:14.638Z,39.20
2022-12-14T22:19:41.944Z,37.00
2022-12-14T22:22:15.215Z,33.00
2022-12-14T22:24:42.380Z,33.20
2022-12-14T22:27:11.441Z,31.07
2022-12-14T22:29:38.472Z,32.70
2022-12-14T22:32:07.604Z,29.97
2022-12-14T22:34:35.114Z,30.27
2022-12-14T22:37:02.129Z,29.67
2022-12-14T22:39:29.162Z,29.23
2022-12-14T22:41:56.666Z,30.20
2022-12-14T22:44:23.644Z,33.03
2022-12-14T22:46:50.500Z,29.13
2022-12-14T22:49:19.312Z,28.87
2022-12-14T22:51:46.355Z,26.17
2022-12-14T22:54:22.544Z,26.60
2022-12-14T22:57:04.374Z,25.90
2022-12-14T22:59:53.765Z,24.90
2022-12-14T23:02:20.965Z,26.13
2022-12-14T23:04:49.933Z,24.20
2022-12-14T23:07:17.447Z,22.93
2022-12-14T23:10:03.479Z,25.07
2022-12-14T23:12:49.328Z,23.33
2022-12-14T23:15:34.665Z,24.00
2022-12-14T23:18:21.292Z,26.00
2022-12-14T23:21:06.679Z,23.50
2022-12-14T23:23:52.226Z,24.87
2022-12-14T23:26:37.849Z,23.13
2022-12-14T23:29:23.765Z,23.50
2022-12-14T23:32:09.552Z,23.23
2022-12-14T23:34:55.154Z,23.60
2022-12-14T23:37:40.764Z,22.80
2022-12-14T23:40:26.984Z,23.63
2022-12-14T23:43:12.385Z,23.57
2022-12-14T23:45:57.915Z,27.10
2022-12-14T23:48:43.746Z,23.50
2022-12-14T23:51:29.234Z,24.40
2022-12-14T23:54:15.115Z,24.50
2022-12-14T23:57:00.802Z,25.77
2022-12-14T23:59:49.361Z,23.00
